Time;durP1;ratioP1;P1;durP2;ratioP2;P2;SDS_P1;SDS_P2;PMS_P1;PMS_P2;Temp;Humidity;BMP_temperature;BMP_pressure;BME280_temperature;BME280_humidity;BME280_pressure;Samples;Min_cycle;Max_cycle;Signal;HPM_P1;HPM_P2
2023/03/21 00:00:28;;;;;;;7.80;3.85;;;7.30;99.90;;;;;;5052563;28;20037;-62
2023/03/21 00:03:00;;;;;;;8.98;3.95;;;7.30;99.90;;;;;;5053538;28;20051;-63
2023/03/21 00:05:32;;;;;;;14.00;5.20;;;7.30;99.90;;;;;;5055484;28;20093;-63
2023/03/21 00:08:04;;;;;;;7.70;3.90;;;7.30;99.90;;;;;;5034253;28;20056;-63
2023/03/21 00:10:36;;;;;;;6.47;3.35;;;7.20;99.90;;;;;;5055075;28;20094;-63
2023/03/21 00:13:07;;;;;;;6.30;3.83;;;7.20;99.90;;;;;;5052699;28;20045;-63
2023/03/21 00:15:37;;;;;;;7.68;4.18;;;7.20;99.90;;;;;;5053114;28;20040;-63
2023/03/21 00:18:10;;;;;;;10.43;4.20;;;7.20;99.90;;;;;;5050312;28;20049;-62
2023/03/21 00:20:50;;;;;;;6.60;4.43;;;7.30;99.90;;;;;;5045108;28;20053;-62
2023/03/21 00:23:22;;;;;;;6.75;4.20;;;7.30;99.90;;;;;;5052195;28;20631;-63
2023/03/21 00:25:54;;;;;;;5.82;3.78;;;7.30;99.90;;;;;;5056643;28;20071;-63
2023/03/21 00:28:28;;;;;;;5.90;3.88;;;7.30;99.90;;;;;;5051777;28;20041;-63
2023/03/21 00:30:58;;;;;;;5.30;4.00;;;7.40;99.90;;;;;;5052855;28;20033;-63
2023/03/21 00:33:30;;;;;;;6.20;4.30;;;7.30;99.90;;;;;;5035340;28;20075;-63
2023/03/21 00:36:02;;;;;;;5.93;4.35;;;7.30;99.90;;;;;;5036507;28;20406;-63
2023/03/21 00:38:35;;;;;;;6.78;4.35;;;7.30;99.90;;;;;;5037596;28;20565;-63
2023/03/21 00:41:10;;;;;;;5.15;3.88;;;7.30;99.90;;;;;;5031014;28;20041;-63
2023/03/21 00:43:41;;;;;;;5.05;3.70;;;7.30;99.90;;;;;;5049655;28;20056;-62
2023/03/21 00:46:13;;;;;;;5.63;3.50;;;7.30;99.90;;;;;;5033882;28;20037;-62
2023/03/21 00:48:45;;;;;;;5.00;3.03;;;7.30;99.90;;;;;;5055128;28;20044;-63
2023/03/21 00:51:24;;;;;;;5.40;3.45;;;7.30;99.90;;;;;;5063777;28;20045;-62
2023/03/21 00:53:57;;;;;;;6.55;3.78;;;7.30;99.90;;;;;;5028561;28;20087;-62
2023/03/21 00:56:30;;;;;;;4.82;3.30;;;7.30;99.90;;;;;;5050699;28;20126;-63
2023/03/21 00:59:03;;;;;;;5.97;3.40;;;7.30;99.90;;;;;;5041306;28;20040;-63
2023/03/21 01:01:35;;;;;;;4.50;3.47;;;7.30;99.90;;;;;;5050568;28;20509;-62
2023/03/21 01:04:12;;;;;;;5.80;4.03;;;7.30;99.90;;;;;;5047157;28;20171;-63
2023/03/21 01:06:41;;;;;;;7.93;4.10;;;7.30;99.90;;;;;;5050441;28;20044;-62
2023/03/21 01:09:18;;;;;;;5.93;3.75;;;7.30;99.90;;;;;;5033192;28;20041;-62
2023/03/21 01:11:51;;;;;;;6.32;4.07;;;7.30;99.90;;;;;;5054976;28;20053;-63
2023/03/21 01:14:23;;;;;;;5.50;3.58;;;7.20;99.90;;;;;;5053738;28;20074;-62
2023/03/21 01:16:54;;;;;;;6.95;4.28;;;7.20;99.90;;;;;;5051318;28;20099;-62
2023/03/21 01:19:27;;;;;;;5.70;3.20;;;7.20;99.90;;;;;;5035032;28;20036;-62
2023/03/21 01:21:59;;;;;;;5.35;3.05;;;7.20;99.90;;;;;;5033865;28;20045;-63
2023/03/21 01:24:30;;;;;;;4.22;3.28;;;7.20;99.90;;;;;;5032658;28;20049;-63
2023/03/21 01:27:02;;;;;;;6.88;3.53;;;7.20;99.90;;;;;;5049705;28;20068;-62
2023/03/21 01:29:29;;;;;;;5.65;3.42;;;7.20;99.90;;;;;;5047254;28;20406;-62
2023/03/21 01:32:01;;;;;;;5.05;3.28;;;7.20;99.90;;;;;;5050671;28;20037;-62
2023/03/21 01:34:28;;;;;;;4.68;2.92;;;7.10;99.90;;;;;;5039373;28;20048;-62
2023/03/21 01:37:01;;;;;;;5.20;3.38;;;7.00;99.90;;;;;;5066596;28;20049;-62
2023/03/21 01:39:40;;;;;;;4.63;3.25;;;7.00;99.90;;;;;;5040134;28;20721;-62
2023/03/21 01:42:13;;;;;;;5.82;3.97;;;7.00;99.90;;;;;;5058097;28;20575;-62
2023/03/21 01:45:00;;;;;;;5.35;3.72;;;6.90;99.90;;;;;;5035651;28;20053;-62
2023/03/21 01:47:40;;;;;;;4.35;3.90;;;6.90;99.90;;;;;;5039720;28;20053;-62
2023/03/21 01:50:22;;;;;;;5.95;3.80;;;6.90;99.90;;;;;;5041000;28;20036;-62
2023/03/21 01:53:02;;;;;;;6.72;3.83;;;6.90;99.90;;;;;;5033084;28;20049;-62
2023/03/21 01:55:35;;;;;;;4.45;3.70;;;7.00;99.90;;;;;;5036367;28;20513;-63
2023/03/21 01:58:18;;;;;;;5.55;3.60;;;7.00;99.90;;;;;;5042699;28;20049;-63
2023/03/21 02:01:05;;;;;;;5.45;3.60;;;7.10;99.90;;;;;;5030111;28;20041;-62
2023/03/21 02:03:49;;;;;;;6.70;3.58;;;7.10;99.90;;;;;;5039604;28;20051;-63
2023/03/21 02:06:52;;;;;;;;;;;7.10;99.90;;;;;;5052114;28;20049;-62
2023/03/21 02:09:52;;;;;;;4.32;3.70;;;7.10;99.90;;;;;;5051837;28;20007;-63
2023/03/21 02:12:22;;;;;;;7.88;4.15;;;7.10;99.90;;;;;;5053141;28;20044;-62
2023/03/21 02:14:55;;;;;;;5.10;4.00;;;7.10;99.90;;;;;;5051245;28;20067;-62
2023/03/21 02:17:55;;;;;;;6.18;4.50;;;7.10;99.90;;;;;;5036037;28;20048;-63
2023/03/21 02:20:53;;;;;;;5.45;4.32;;;7.10;99.90;;;;;;5054618;28;20523;-62
2023/03/21 02:23:35;;;;;;;7.45;3.90;;;7.10;99.90;;;;;;5036163;28;20432;-62
2023/03/21 02:26:32;;;;;;;6.90;3.85;;;7.10;99.90;;;;;;5053508;28;20041;-63
2023/03/21 02:29:34;;;;;;;5.43;4.18;;;7.10;99.90;;;;;;5053164;28;20048;-62
2023/03/21 02:32:16;;;;;;;4.38;3.85;;;7.10;99.90;;;;;;5062715;28;20463;-62
2023/03/21 02:34:52;;;;;;;7.05;4.10;;;7.10;99.90;;;;;;5034625;28;20423;-62
2023/03/21 02:37:32;;;;;;;9.57;4.35;;;7.00;99.90;;;;;;5064192;28;20045;-62
2023/03/21 02:40:10;;;;;;;7.60;4.07;;;6.90;99.90;;;;;;5050390;28;20509;-62
2023/03/21 02:43:27;;;;;;;7.30;3.60;;;6.90;99.90;;;;;;5039142;28;20051;-62
2023/03/21 02:46:09;;;;;;;7.10;4.43;;;6.90;99.90;;;;;;5037204;28;20428;-63
2023/03/21 02:49:13;;;;;;;4.68;4.03;;;6.90;99.90;;;;;;5033657;28;20424;-62
2023/03/21 02:51:47;;;;;;;5.00;4.13;;;6.90;99.90;;;;;;5032456;28;20048;-62
2023/03/21 02:54:22;;;;;;;6.38;4.20;;;6.90;99.90;;;;;;5035174;28;20103;-62
2023/03/21 02:56:58;;;;;;;7.82;3.92;;;7.00;99.90;;;;;;5034821;28;20086;-62
2023/03/21 02:59:26;;;;;;;6.03;3.92;;;7.00;99.90;;;;;;5036671;28;20417;-63
2023/03/21 03:02:02;;;;;;;7.13;3.83;;;7.00;99.90;;;;;;5033778;28;20056;-62
2023/03/21 03:04:34;;;;;;;7.65;3.75;;;7.10;99.90;;;;;;5037802;28;20037;-62
2023/03/21 03:07:20;;;;;;;4.72;4.07;;;7.10;99.90;;;;;;5066552;28;20483;-62
2023/03/21 03:10:19;;;;;;;7.28;4.25;;;7.10;99.90;;;;;;5033316;28;20788;-62
2023/03/21 03:13:12;;;;;;;4.32;3.85;;;7.20;99.90;;;;;;5034983;28;20044;-63
2023/03/21 03:16:01;;;;;;;6.53;4.38;;;7.20;99.90;;;;;;5032002;28;20666;-63
2023/03/21 03:18:48;;;;;;;6.85;4.93;;;7.20;99.90;;;;;;5019721;28;20065;-62
2023/03/21 03:21:45;;;;;;;5.25;4.45;;;7.20;99.90;;;;;;5035807;28;20056;-62
2023/03/21 03:24:25;;;;;;;5.22;4.72;;;7.20;99.90;;;;;;5046997;28;20063;-63
2023/03/21 03:27:16;;;;;;;6.63;4.80;;;7.20;99.90;;;;;;5033828;28;20037;-62
2023/03/21 03:29:51;;;;;;;5.85;4.53;;;7.20;99.90;;;;;;5062152;28;20129;-62
2023/03/21 03:32:37;;;;;;;6.75;4.72;;;7.20;99.90;;;;;;5049538;28;20095;-62
2023/03/21 03:35:08;;;;;;;6.17;4.57;;;7.20;99.90;;;;;;5056397;28;20102;-62
2023/03/21 03:37:41;;;;;;;6.80;5.05;;;7.20;99.90;;;;;;5048116;28;20040;-63
2023/03/21 03:40:23;;;;;;;7.88;5.47;;;7.20;99.90;;;;;;5050589;28;20045;-62
2023/03/21 03:43:14;;;;;;;5.65;4.85;;;7.20;99.90;;;;;;5035351;28;20059;-62
2023/03/21 03:45:50;;;;;;;6.00;5.07;;;7.20;99.90;;;;;;5050286;28;20504;-62
2023/03/21 03:48:27;;;;;;;5.13;4.43;;;7.20;99.90;;;;;;5034736;28;20036;-62
2023/03/21 03:51:08;;;;;;;7.25;4.15;;;7.20;99.90;;;;;;5030681;28;20136;-62
2023/03/21 03:54:11;;;;;;;5.07;3.83;;;7.10;99.90;;;;;;5035171;28;20118;-63
2023/03/21 03:56:44;;;;;;;5.03;4.15;;;7.10;99.90;;;;;;5050514;28;20045;-63
2023/03/21 03:59:20;;;;;;;5.72;3.90;;;7.10;99.90;;;;;;5054410;28;20330;-62
2023/03/21 04:02:07;;;;;;;6.30;4.30;;;7.10;99.90;;;;;;5052286;28;20041;-62
2023/03/21 04:04:40;;;;;;;5.22;4.10;;;7.00;99.90;;;;;;5034438;28;20125;-62
2023/03/21 04:07:13;;;;;;;6.43;4.65;;;7.00;99.90;;;;;;5032241;28;20053;-62
2023/03/21 04:09:45;;;;;;;5.97;4.40;;;7.00;99.90;;;;;;5049389;28;20488;-62
2023/03/21 04:12:18;;;;;;;5.78;5.05;;;7.10;99.90;;;;;;5043612;28;20148;-62
2023/03/21 04:15:07;;;;;;;5.65;3.97;;;7.10;99.90;;;;;;5056696;28;20081;-62
2023/03/21 04:17:44;;;;;;;5.97;4.15;;;7.10;99.90;;;;;;5035201;28;20048;-62
2023/03/21 04:20:16;;;;;;;9.40;3.95;;;7.10;99.90;;;;;;5052576;28;20674;-63
2023/03/21 04:22:47;;;;;;;8.00;4.50;;;7.10;99.90;;;;;;5033909;28;20037;-62
2023/03/21 04:25:20;;;;;;;5.18;4.20;;;7.00;99.90;;;;;;5043527;28;20044;-62
2023/03/21 04:27:54;;;;;;;4.95;4.10;;;7.00;99.90;;;;;;5033432;28;20627;-62
2023/03/21 04:30:38;;;;;;;5.28;4.18;;;7.00;99.90;;;;;;5033590;28;20386;-63
2023/03/21 04:33:12;;;;;;;5.47;4.38;;;7.00;99.90;;;;;;5028732;28;20048;-63
2023/03/21 04:35:55;;;;;;;5.20;4.45;;;7.00;99.90;;;;;;5034028;28;20040;-62
2023/03/21 04:38:32;;;;;;;8.80;4.57;;;7.00;99.90;;;;;;5034516;28;20041;-62
2023/03/21 04:41:05;;;;;;;5.85;4.38;;;7.00;99.90;;;;;;5033789;28;20052;-62
2023/03/21 04:43:37;;;;;;;5.00;3.72;;;7.00;99.90;;;;;;5030438;28;20059;-62
2023/03/21 04:46:09;;;;;;;5.93;4.07;;;7.00;99.90;;;;;;5039809;28;20036;-62
2023/03/21 04:48:40;;;;;;;5.90;4.30;;;7.00;99.90;;;;;;5043403;28;20041;-62
2023/03/21 04:51:12;;;;;;;5.55;4.07;;;7.10;99.90;;;;;;5038749;28;20440;-62
2023/03/21 04:53:42;;;;;;;7.00;4.70;;;7.10;99.90;;;;;;5049832;28;20040;-62
2023/03/21 04:56:14;;;;;;;6.20;4.90;;;7.10;99.90;;;;;;5049716;28;20053;-62
2023/03/21 04:58:46;;;;;;;5.97;4.35;;;7.10;99.90;;;;;;5049628;28;20059;-62
2023/03/21 05:01:19;;;;;;;7.50;3.60;;;7.00;99.90;;;;;;5039097;28;20041;-63
2023/03/21 05:03:51;;;;;;;10.52;3.95;;;7.10;99.90;;;;;;5035472;28;20045;-63
2023/03/21 05:06:24;;;;;;;5.13;4.00;;;7.00;99.90;;;;;;5054768;28;20106;-63
2023/03/21 05:09:04;;;;;;;7.28;5.20;;;7.00;99.90;;;;;;5034209;28;20456;-63
2023/03/21 05:11:37;;;;;;;7.05;5.53;;;7.00;99.90;;;;;;5067777;28;20044;-62
2023/03/21 05:14:19;;;;;;;7.45;4.88;;;6.90;99.90;;;;;;5056784;28;20045;-63
2023/03/21 05:16:53;;;;;;;5.80;4.88;;;6.90;99.90;;;;;;5021542;28;20049;-63
2023/03/21 05:19:35;;;;;;;10.07;4.70;;;6.90;99.90;;;;;;5037308;28;20058;-63
2023/03/21 05:22:10;;;;;;;8.70;4.32;;;6.90;99.90;;;;;;5055424;28;20052;-63
2023/03/21 05:24:42;;;;;;;8.00;4.63;;;6.80;99.90;;;;;;5055761;28;20049;-63
2023/03/21 05:27:34;;;;;;;6.65;4.20;;;6.80;99.90;;;;;;5036832;28;20076;-64
2023/03/21 05:30:11;;;;;;;6.00;3.95;;;6.80;99.90;;;;;;5041898;28;20470;-62
2023/03/21 05:32:45;;;;;;;6.07;4.28;;;6.80;99.90;;;;;;5034445;28;20053;-62
2023/03/21 05:35:19;;;;;;;;;;;6.70;99.90;;;;;;5041982;28;20044;-63
2023/03/21 05:37:51;;;;;;;5.40;3.90;;;6.70;99.90;;;;;;5052836;28;20286;-63
2023/03/21 05:40:24;;;;;;;4.97;4.20;;;6.70;99.90;;;;;;5036066;28;20060;-63
2023/03/21 05:42:57;;;;;;;5.27;4.20;;;6.80;99.90;;;;;;5035699;28;20610;-63
2023/03/21 05:45:29;;;;;;;6.80;4.40;;;6.70;99.90;;;;;;5053789;28;20830;-63
2023/03/21 05:48:02;;;;;;;5.50;4.83;;;6.70;99.90;;;;;;5051421;28;20045;-63
2023/03/21 05:50:47;;;;;;;7.60;4.82;;;6.80;99.90;;;;;;5038705;28;20107;-62
2023/03/21 05:53:21;;;;;;;6.03;4.82;;;6.80;99.90;;;;;;5040350;28;20066;-63
2023/03/21 05:55:52;;;;;;;6.13;4.55;;;6.80;99.90;;;;;;5050529;28;20501;-62
2023/03/21 05:58:40;;;;;;;6.68;4.43;;;6.80;99.90;;;;;;5049842;28;20049;-63
2023/03/21 06:01:07;;;;;;;7.18;3.83;;;6.80;99.90;;;;;;5040377;28;20456;-62
2023/03/21 06:03:45;;;;;;;4.95;3.97;;;6.80;99.90;;;;;;5034919;28;20060;-62
2023/03/21 06:06:21;;;;;;;6.35;4.40;;;6.80;99.90;;;;;;5038156;28;20075;-63
2023/03/21 06:08:59;;;;;;;5.68;4.32;;;6.90;99.90;;;;;;5039336;28;20504;-63
2023/03/21 06:11:33;;;;;;;5.15;4.40;;;6.90;99.90;;;;;;5053931;28;20063;-63
2023/03/21 06:14:31;;;;;;;9.20;4.93;;;6.90;99.90;;;;;;5039806;28;20117;-63
2023/03/21 06:17:16;;;;;;;5.18;4.30;;;6.90;99.90;;;;;;5057610;28;20421;-63
2023/03/21 06:19:59;;;;;;;8.20;4.40;;;6.90;99.90;;;;;;5036569;28;20425;-63
2023/03/21 06:22:38;;;;;;;9.13;4.72;;;6.90;99.90;;;;;;5041944;28;20579;-62
2023/03/21 06:25:10;;;;;;;5.70;4.90;;;6.90;99.90;;;;;;5023813;28;20033;-62
2023/03/21 06:27:42;;;;;;;5.88;4.30;;;6.90;99.90;;;;;;5053247;28;20092;-63
2023/03/21 06:30:14;;;;;;;7.13;4.13;;;6.90;99.90;;;;;;5051542;28;20051;-63
2023/03/21 06:33:02;;;;;;;9.77;5.25;;;7.00;99.90;;;;;;5038189;28;20111;-63
2023/03/21 06:35:35;;;;;;;5.43;4.50;;;7.00;99.90;;;;;;5051393;28;20118;-63
2023/03/21 06:38:08;;;;;;;11.32;4.53;;;7.10;99.90;;;;;;5057022;28;20135;-63
2023/03/21 06:40:40;;;;;;;5.68;4.20;;;7.10;99.90;;;;;;5036944;28;20045;-63
2023/03/21 06:43:07;;;;;;;10.52;5.05;;;7.20;99.90;;;;;;5049204;28;20509;-63
2023/03/21 06:45:39;;;;;;;4.55;3.58;;;7.20;99.90;;;;;;5052566;28;20433;-63
2023/03/21 06:48:11;;;;;;;8.80;5.65;;;7.30;99.90;;;;;;5050626;28;20152;-63
2023/03/21 06:50:47;;;;;;;12.40;7.50;;;7.40;99.90;;;;;;5052823;28;20513;-62
2023/03/21 06:53:28;;;;;;;16.63;11.27;;;7.50;99.90;;;;;;5041209;28;20060;-63
2023/03/21 06:56:32;;;;;;;13.35;11.38;;;7.50;99.90;;;;;;5037877;28;20053;-62
2023/03/21 06:59:07;;;;;;;;;;;7.50;99.90;;;;;;5019774;28;20103;-63
2023/03/21 07:02:05;;;;;;;13.73;11.00;;;7.50;99.90;;;;;;5051124;28;19972;-63
2023/03/21 07:04:46;;;;;;;12.20;8.57;;;7.60;99.90;;;;;;5033860;28;20591;-63
2023/03/21 07:07:25;;;;;;;8.45;6.57;;;7.60;99.90;;;;;;5049041;28;20145;-63
2023/03/21 07:09:57;;;;;;;6.63;5.55;;;7.60;99.90;;;;;;5048464;28;20114;-63
2023/03/21 07:12:34;;;;;;;10.88;7.47;;;7.60;99.90;;;;;;5036102;28;20041;-63
2023/03/21 07:15:19;;;;;;;10.98;8.85;;;7.60;99.90;;;;;;5034319;28;20717;-63
2023/03/21 07:17:51;;;;;;;17.02;12.07;;;7.70;99.90;;;;;;5039957;28;20041;-63
2023/03/21 07:20:25;;;;;;;8.60;7.70;;;7.70;99.90;;;;;;5037523;28;20044;-63
2023/03/21 07:22:58;;;;;;;10.15;7.55;;;7.80;99.90;;;;;;5038489;28;20115;-63
2023/03/21 07:25:30;;;;;;;8.27;7.03;;;7.90;99.90;;;;;;5052698;28;20052;-64
2023/03/21 07:28:02;;;;;;;10.32;9.32;;;7.90;99.90;;;;;;5063557;28;20037;-63
2023/03/21 07:30:35;;;;;;;9.70;8.80;;;8.00;99.90;;;;;;5052710;28;20613;-62
2023/03/21 07:33:07;;;;;;;9.67;8.20;;;8.10;99.90;;;;;;5049121;28;20055;-63
2023/03/21 07:35:39;;;;;;;7.20;5.53;;;8.10;99.90;;;;;;5039282;28;20090;-63
2023/03/21 07:38:13;;;;;;;8.18;6.20;;;8.20;99.90;;;;;;5032607;28;20041;-63
2023/03/21 07:40:46;;;;;;;8.15;6.57;;;8.20;99.90;;;;;;5057690;28;20460;-63
2023/03/21 07:43:19;;;;;;;7.38;5.88;;;8.30;99.90;;;;;;5036724;28;20052;-63
2023/03/21 07:45:56;;;;;;;10.85;8.35;;;8.30;99.90;;;;;;5053365;28;20045;-63
2023/03/21 07:48:23;;;;;;;17.92;9.63;;;8.40;99.90;;;;;;5054609;28;20516;-63
2023/03/21 07:50:55;;;;;;;16.67;8.25;;;8.40;99.90;;;;;;5050105;28;20045;-63
2023/03/21 07:53:22;;;;;;;10.95;7.18;;;8.50;99.90;;;;;;5051486;28;20049;-63
2023/03/21 07:55:55;;;;;;;9.52;7.20;;;8.50;99.90;;;;;;5051512;28;20041;-63
2023/03/21 07:58:27;;;;;;;10.60;6.78;;;8.60;99.90;;;;;;5055345;28;20044;-63
2023/03/21 08:00:59;;;;;;;10.30;7.05;;;8.70;99.90;;;;;;5033294;28;20056;-63
2023/03/21 08:03:28;;;;;;;10.73;5.75;;;8.80;99.90;;;;;;5058965;28;20119;-63
2023/03/21 08:05:54;;;;;;;7.63;5.72;;;8.80;99.90;;;;;;5053302;28;20047;-64
2023/03/21 08:08:26;;;;;;;7.82;4.82;;;8.90;99.90;;;;;;5054758;28;20036;-63
2023/03/21 08:10:58;;;;;;;7.80;4.68;;;8.90;99.90;;;;;;5052388;28;20045;-63
2023/03/21 08:13:32;;;;;;;12.10;6.70;;;9.00;99.90;;;;;;5050303;28;20044;-63
2023/03/21 08:16:04;;;;;;;10.65;7.38;;;9.10;99.90;;;;;;5050805;28;20048;-63
2023/03/21 08:18:36;;;;;;;10.77;8.35;;;9.20;99.90;;;;;;5064663;28;20032;-63
2023/03/21 08:21:08;;;;;;;14.88;9.23;;;9.30;99.90;;;;;;5054867;28;20049;-63
2023/03/21 08:23:40;;;;;;;13.40;8.63;;;9.30;99.90;;;;;;5035109;28;20060;-63
2023/03/21 08:26:14;;;;;;;11.30;8.77;;;9.30;99.90;;;;;;5057416;28;20041;-63
2023/03/21 08:28:46;;;;;;;12.32;8.32;;;9.40;99.90;;;;;;5052356;28;20052;-63
2023/03/21 08:31:20;;;;;;;10.88;8.05;;;9.50;99.90;;;;;;5040133;28;20037;-63
2023/03/21 08:33:53;;;;;;;11.00;8.70;;;9.50;99.90;;;;;;5032908;28;20045;-63
2023/03/21 08:36:25;;;;;;;10.48;7.38;;;9.60;99.90;;;;;;5052015;28;20044;-63
2023/03/21 08:39:04;;;;;;;7.47;5.75;;;9.70;99.90;;;;;;5051147;28;20563;-63
2023/03/21 08:41:37;;;;;;;6.10;4.18;;;9.80;99.90;;;;;;5053366;28;20046;-63
2023/03/21 08:44:09;;;;;;;6.10;4.60;;;9.80;99.90;;;;;;5053367;28;20057;-63
2023/03/21 08:46:41;;;;;;;5.53;4.07;;;9.90;99.90;;;;;;5053230;28;20091;-63
2023/03/21 08:49:13;;;;;;;5.28;3.92;;;9.90;99.90;;;;;;5055650;28;20096;-63
2023/03/21 08:51:45;;;;;;;6.35;4.45;;;10.00;99.90;;;;;;5048356;28;20522;-63
2023/03/21 08:54:20;;;;;;;5.60;4.45;;;10.10;99.90;;;;;;5053307;28;20044;-63
2023/03/21 08:56:52;;;;;;;6.03;4.43;;;10.10;99.90;;;;;;5049922;28;20041;-63
2023/03/21 08:59:24;;;;;;;5.20;3.78;;;10.10;99.90;;;;;;5051587;28;20047;-63
2023/03/21 09:01:56;;;;;;;4.45;3.75;;;10.20;99.90;;;;;;5046965;28;20509;-63
2023/03/21 09:04:29;;;;;;;7.30;4.30;;;10.30;99.90;;;;;;5053694;28;20036;-63
2023/03/21 09:07:03;;;;;;;5.55;3.33;;;10.30;99.90;;;;;;5050970;28;20140;-63
2023/03/21 09:09:36;;;;;;;5.00;4.20;;;10.40;99.90;;;;;;5034617;28;20040;-63
2023/03/21 09:12:08;;;;;;;4.63;3.70;;;10.50;99.90;;;;;;5052922;28;20049;-63
2023/03/21 09:14:40;;;;;;;5.78;3.53;;;10.60;99.90;;;;;;5034885;28;20440;-63
2023/03/21 09:17:12;;;;;;;4.63;3.40;;;10.70;99.90;;;;;;5051523;28;20457;-63
2023/03/21 09:19:45;;;;;;;5.70;3.38;;;10.70;99.90;;;;;;5049545;28;20662;-62
2023/03/21 09:22:17;;;;;;;6.88;3.63;;;10.80;99.90;;;;;;5050742;28;20051;-63
2023/03/21 09:24:50;;;;;;;4.18;3.05;;;10.90;99.90;;;;;;5033227;28;20044;-63
2023/03/21 09:27:22;;;;;;;4.15;3.67;;;10.90;99.90;;;;;;5055386;28;20544;-63
2023/03/21 09:29:54;;;;;;;4.45;3.50;;;11.00;99.90;;;;;;5053620;28;20033;-63
2023/03/21 09:32:27;;;;;;;8.20;3.55;;;11.10;99.90;;;;;;5052452;28;20102;-63
2023/03/21 09:34:59;;;;;;;4.40;3.30;;;11.20;99.90;;;;;;5049655;28;20632;-63
2023/03/21 09:37:31;;;;;;;4.88;3.38;;;11.30;99.90;;;;;;5050640;28;20052;-63
2023/03/21 09:40:07;;;;;;;4.65;3.35;;;11.30;99.90;;;;;;5050860;28;20120;-63
2023/03/21 09:43:05;;;;;;;3.53;2.95;;;11.40;99.90;;;;;;5050695;28;20785;-63
2023/03/21 09:45:53;;;;;;;7.43;3.03;;;11.50;99.90;;;;;;5049881;28;20040;-63
2023/03/21 09:48:36;;;;;;;7.38;3.10;;;11.60;99.90;;;;;;5048777;28;20584;-63
2023/03/21 09:51:14;;;;;;;3.97;2.90;;;11.70;99.90;;;;;;5035850;28;20152;-63
2023/03/21 09:53:49;;;;;;;4.35;2.85;;;11.80;99.90;;;;;;5033591;28;20040;-63
2023/03/21 09:56:23;;;;;;;2.83;2.50;;;12.00;99.90;;;;;;5056796;28;20045;-63
2023/03/21 09:58:59;;;;;;;11.10;3.20;;;12.00;99.90;;;;;;5053055;28;20059;-63
2023/03/21 10:01:40;;;;;;;4.88;2.65;;;12.10;99.90;;;;;;5045318;28;20056;-63
2023/03/21 10:04:17;;;;;;;4.82;2.58;;;12.10;99.90;;;;;;5054805;28;20047;-63
2023/03/21 10:06:56;;;;;;;4.35;2.92;;;12.20;99.90;;;;;;5035715;28;20087;-63
2023/03/21 10:18:06;;;;;;;5.93;3.00;;;12.60;99.90;;;;;;5049109;28;20092;-63
2023/03/21 10:20:41;;;;;;;4.53;3.22;;;12.70;99.90;;;;;;5036555;28;20050;-63
2023/03/21 10:23:16;;;;;;;5.07;2.92;;;12.80;99.90;;;;;;5054225;28;20063;-63
2023/03/21 10:25:53;;;;;;;3.75;3.17;;;12.80;99.90;;;;;;5045811;28;20525;-63
2023/03/21 10:28:30;;;;;;;5.00;3.20;;;12.90;99.90;;;;;;5050537;28;20049;-63
2023/03/21 10:31:08;;;;;;;4.63;3.25;;;12.90;99.90;;;;;;5046266;28;20037;-63
2023/03/21 10:33:44;;;;;;;4.93;3.13;;;12.90;99.90;;;;;;5050880;28;20041;-63
2023/03/21 10:36:34;;;;;;;4.68;3.40;;;12.90;99.90;;;;;;5057721;28;20505;-63
2023/03/21 10:39:18;;;;;;;4.00;3.17;;;12.90;99.90;;;;;;5050025;28;20057;-63
2023/03/21 10:41:50;;;;;;;4.85;3.33;;;13.00;99.90;;;;;;5057531;28;20040;-63
2023/03/21 10:44:29;;;;;;;3.65;3.08;;;13.10;99.90;;;;;;5055437;28;20528;-63
2023/03/21 10:47:05;;;;;;;4.63;2.85;;;13.10;99.90;;;;;;5051351;28;20045;-63
2023/03/21 10:49:38;;;;;;;4.15;3.38;;;13.10;99.90;;;;;;5051724;28;20045;-63
2023/03/21 10:52:12;;;;;;;4.15;3.17;;;13.10;99.90;;;;;;5052761;28;20045;-63
2023/03/21 10:54:44;;;;;;;5.32;3.72;;;13.10;99.90;;;;;;5057847;28;20056;-63
2023/03/21 10:57:22;;;;;;;4.03;3.13;;;13.30;99.90;;;;;;5054015;28;20041;-63
2023/03/21 10:59:57;;;;;;;5.72;3.67;;;13.50;99.90;;;;;;5057835;28;20041;-63
2023/03/21 11:02:35;;;;;;;5.63;3.88;;;13.70;99.90;;;;;;5053024;28;20049;-63
2023/03/21 11:05:21;;;;;;;4.90;3.80;;;13.80;99.90;;;;;;5054193;28;20041;-63
2023/03/21 11:08:10;;;;;;;7.68;3.70;;;13.70;99.90;;;;;;5049472;28;20056;-63
2023/03/21 11:11:02;;;;;;;4.57;4.10;;;13.70;99.90;;;;;;5033444;28;20120;-63
2023/03/21 11:13:42;;;;;;;6.28;3.63;;;13.70;99.90;;;;;;5051165;28;20044;-63
2023/03/21 11:16:23;;;;;;;5.35;3.55;;;13.70;99.90;;;;;;5052603;28;20124;-63
2023/03/21 11:19:11;;;;;;;4.63;3.85;;;13.80;99.90;;;;;;5052628;28;20049;-63
2023/03/21 11:21:39;;;;;;;6.45;4.00;;;13.90;99.90;;;;;;5057375;28;20048;-63
2023/03/21 11:24:14;;;;;;;5.05;3.97;;;14.00;99.90;;;;;;5026918;28;20547;-63
2023/03/21 11:26:49;;;;;;;6.78;4.32;;;14.00;99.90;;;;;;5051534;28;20037;-63
2023/03/21 11:29:39;;;;;;;4.30;3.60;;;14.00;99.90;;;;;;5056537;28;20049;-63
2023/03/21 11:32:19;;;;;;;5.30;4.03;;;14.10;99.90;;;;;;5036360;28;20052;-63
2023/03/21 11:35:02;;;;;;;6.05;4.22;;;14.20;99.90;;;;;;5051883;28;20045;-63
2023/03/21 11:37:48;;;;;;;4.07;3.45;;;14.30;99.90;;;;;;5053740;28;20075;-63
2023/03/21 11:40:31;;;;;;;5.25;3.88;;;14.20;99.90;;;;;;5036990;28;20057;-63
2023/03/21 11:43:27;;;;;;;6.28;3.92;;;14.20;99.90;;;;;;5037813;28;20095;-63
2023/03/21 11:46:07;;;;;;;4.47;3.88;;;14.30;99.90;;;;;;5038137;28;20108;-63
2023/03/21 11:48:42;;;;;;;4.85;3.25;;;14.50;99.90;;;;;;5049742;28;20033;-63
2023/03/21 11:51:57;;;;;;;4.93;4.38;;;14.70;99.90;;;;;;5048990;28;20037;-63
2023/03/21 11:54:58;;;;;;;4.18;3.65;;;14.90;99.90;;;;;;5051346;28;20033;-63
2023/03/21 11:57:42;;;;;;;4.53;3.88;;;15.10;99.90;;;;;;5051976;28;20036;-63
2023/03/21 12:00:26;;;;;;;5.45;3.90;;;15.10;99.90;;;;;;5050436;28;20037;-63
2023/03/21 12:03:46;;;;;;;5.10;3.92;;;14.90;99.90;;;;;;5039086;28;20040;-63
2023/03/21 12:06:28;;;;;;;6.00;4.03;;;14.80;99.90;;;;;;5006041;28;20049;-63
2023/03/21 12:09:19;;;;;;;6.20;4.28;;;14.90;99.90;;;;;;4990887;28;20049;-63
2023/03/21 12:12:18;;;;;;;7.07;4.90;;;14.80;99.90;;;;;;5027871;28;20459;-63
2023/03/21 12:14:56;;;;;;;7.53;4.75;;;14.70;99.90;;;;;;5049321;28;20037;-63
2023/03/21 12:17:46;;;;;;;5.70;4.82;;;14.70;99.90;;;;;;5032322;28;20120;-63
2023/03/21 12:21:05;;;;;;;6.18;4.78;;;14.80;99.90;;;;;;5044472;28;20037;-63
2023/03/21 12:23:53;;;;;;;7.43;5.03;;;14.80;99.90;;;;;;5053599;28;20059;-63
2023/03/21 12:26:31;;;;;;;5.43;4.65;;;14.80;99.90;;;;;;5050758;28;20044;-64
2023/03/21 12:29:09;;;;;;;6.72;5.50;;;14.90;99.90;;;;;;5033804;28;20044;-64
2023/03/21 12:31:59;;;;;;;7.85;5.05;;;15.00;99.90;;;;;;5051785;28;20064;-63
2023/03/21 12:34:52;;;;;;;4.88;4.43;;;15.20;99.90;;;;;;5047538;28;20091;-63
2023/03/21 12:37:51;;;;;;;6.65;4.85;;;15.00;99.90;;;;;;5049462;28;20189;-63
2023/03/21 12:41:01;;;;;;;5.57;4.93;;;15.00;99.90;;;;;;5045603;28;20052;-63
2023/03/21 12:43:42;;;;;;;4.85;4.35;;;15.00;99.90;;;;;;5047877;28;20083;-63
2023/03/21 12:46:38;;;;;;;7.15;5.40;;;15.10;99.90;;;;;;5033849;28;20051;-63
2023/03/21 12:49:22;;;;;;;5.55;4.90;;;15.20;99.90;;;;;;5049737;28;20036;-63
2023/03/21 12:52:04;;;;;;;5.72;4.90;;;15.10;99.90;;;;;;5051755;28;20044;-63
2023/03/21 12:54:45;;;;;;;6.13;4.90;;;15.20;99.90;;;;;;5052680;28;20048;-63
2023/03/21 12:57:31;;;;;;;7.45;5.93;;;15.40;99.90;;;;;;5042307;28;21395;-63
2023/03/21 13:00:29;;;;;;;9.00;5.70;;;15.50;99.90;;;;;;5047276;28;20576;-63
2023/03/21 13:03:16;;;;;;;6.05;5.35;;;15.60;99.90;;;;;;5044622;28;20045;-63
2023/03/21 13:06:06;;;;;;;6.93;5.70;;;15.50;99.90;;;;;;5047659;28;20429;-63
2023/03/21 13:08:42;;;;;;;7.47;5.85;;;15.40;99.90;;;;;;5053715;28;20044;-63
2023/03/21 13:11:22;;;;;;;7.25;5.15;;;15.30;99.90;;;;;;5033666;28;20033;-63
2023/03/21 13:14:15;;;;;;;6.20;4.78;;;15.30;99.90;;;;;;5049044;28;20047;-63
2023/03/21 13:16:51;;;;;;;8.02;5.07;;;15.30;99.90;;;;;;5045146;28;20051;-63
2023/03/21 13:20:01;;;;;;;6.03;4.45;;;15.30;99.90;;;;;;5033521;28;20033;-65
2023/03/21 13:22:33;;;;;;;6.82;4.90;;;15.30;99.90;;;;;;5053193;28;20052;-63
2023/03/21 13:25:23;;;;;;;4.75;4.10;;;15.40;99.90;;;;;;5060524;28;20049;-63
2023/03/21 13:28:04;;;;;;;4.55;4.03;;;15.50;99.90;;;;;;5048330;28;20045;-63
2023/03/21 13:30:36;;;;;;;5.15;3.72;;;15.50;99.90;;;;;;5036168;28;20506;-63
2023/03/21 13:33:13;;;;;;;4.75;3.97;;;15.60;99.90;;;;;;5051458;28;20099;-63
2023/03/21 13:35:43;;;;;;;4.80;4.25;;;15.50;99.90;;;;;;5054779;28;20566;-63
2023/03/21 13:38:25;;;;;;;4.72;4.07;;;15.40;99.90;;;;;;5055055;28;20381;-63
2023/03/21 13:41:14;;;;;;;4.43;4.03;;;15.50;99.90;;;;;;5052473;28;20044;-63
2023/03/21 13:43:53;;;;;;;4.72;4.22;;;15.50;99.90;;;;;;5050697;28;20527;-63
2023/03/21 13:46:26;;;;;;;4.35;3.80;;;15.50;99.90;;;;;;5055052;28;20493;-63
2023/03/21 13:48:52;;;;;;;4.87;3.93;;;15.50;99.90;;;;;;5051396;28;20420;-63
2023/03/21 13:51:27;;;;;;;3.95;3.53;;;15.50;99.90;;;;;;5044333;28;20059;-63
2023/03/21 13:54:16;;;;;;;5.90;3.90;;;15.50;99.90;;;;;;5047797;28;20037;-63
2023/03/21 13:56:51;;;;;;;5.07;4.03;;;15.50;99.90;;;;;;5030504;28;20091;-63
2023/03/21 13:59:40;;;;;;;6.53;4.53;;;15.50;99.90;;;;;;5050470;28;20040;-63